createdAt,value
2018-12-01T00:05:26.430Z,40
2018-12-01T00:15:29.849Z,39
2018-12-01T00:25:33.285Z,39
2018-12-01T00:35:36.713Z,40
2018-12-01T00:45:40.139Z,40
2018-12-01T00:55:43.578Z,39
2018-12-01T01:05:47.007Z,39
2018-12-01T01:15:50.408Z,39
2018-12-01T01:25:53.801Z,39
2018-12-01T01:35:57.226Z,39
2018-12-01T01:46:00.667Z,39
2018-12-01T01:56:04.100Z,39
2018-12-01T02:06:07.528Z,39
2018-12-01T02:16:10.928Z,38
2018-12-01T02:26:14.354Z,38
2018-12-01T02:36:17.782Z,39
2018-12-01T02:46:21.233Z,39
2018-12-01T02:56:24.653Z,39
2018-12-01T03:06:28.107Z,39
2018-12-01T03:16:31.535Z,39
2018-12-01T03:26:34.972Z,38
2018-12-01T03:36:38.396Z,39
2018-12-01T03:46:41.794Z,38
2018-12-01T03:56:45.187Z,39
2018-12-01T04:06:48.611Z,38
2018-12-01T04:16:52.049Z,39
2018-12-01T04:26:55.491Z,39
2018-12-01T04:36:58.908Z,39
2018-12-01T04:47:02.353Z,38
2018-12-01T04:57:05.781Z,39
2018-12-01T05:07:09.202Z,39
2018-12-01T05:17:12.620Z,38
2018-12-01T05:27:16.027Z,38
2018-12-01T05:37:19.414Z,39
2018-12-01T05:47:22.843Z,38
2018-12-01T05:57:26.282Z,39
2018-12-01T06:07:29.722Z,38
2018-12-01T06:17:33.150Z,38
2018-12-01T06:27:36.605Z,39
2018-12-01T06:37:40.036Z,39
2018-12-01T06:47:43.472Z,39
2018-12-01T06:57:46.916Z,39
2018-12-01T07:07:50.356Z,39
2018-12-01T07:17:53.772Z,39
2018-12-01T07:27:57.204Z,38
2018-12-01T07:38:00.642Z,40
2018-12-01T07:48:04.077Z,40
2018-12-01T07:58:07.529Z,39
2018-12-01T08:08:10.971Z,39
2018-12-01T08:18:14.416Z,39
2018-12-01T08:28:17.826Z,40
2018-12-01T08:38:21.243Z,42
2018-12-01T08:48:24.672Z,40
2018-12-01T08:58:28.102Z,39
2018-12-01T09:08:31.546Z,39
2018-12-01T09:18:34.983Z,39
2018-12-01T09:28:38.423Z,40
2018-12-01T09:38:41.877Z,40
2018-12-01T09:48:45.289Z,39
2018-12-01T09:58:48.715Z,39
2018-12-01T10:08:52.176Z,40
2018-12-01T10:18:56.807Z,39
2018-12-01T10:29:00.241Z,38
2018-12-01T10:39:03.970Z,40
2018-12-01T10:49:07.404Z,38
2018-12-01T10:59:10.836Z,38
2018-12-01T11:09:14.264Z,38
2018-12-01T11:19:18.726Z,38
2018-12-01T11:29:22.178Z,38
2018-12-01T11:39:25.589Z,39
2018-12-01T11:49:29.020Z,38
2018-12-01T11:59:32.451Z,38
2018-12-01T12:09:35.875Z,38
2018-12-01T12:19:39.817Z,37
2018-12-01T12:29:43.266Z,38
2018-12-01T12:39:46.717Z,38
2018-12-01T12:49:50.136Z,38
2018-12-01T12:59:53.590Z,38
2018-12-01T13:09:57.028Z,38
2018-12-01T13:20:00.458Z,38
2018-12-01T13:30:03.864Z,38
2018-12-01T13:40:07.297Z,38
2018-12-01T13:50:10.736Z,37
2018-12-01T14:00:14.147Z,40
2018-12-01T14:10:17.577Z,39
2018-12-01T14:20:21.011Z,38
2018-12-01T14:30:24.434Z,39
2018-12-01T14:40:27.863Z,38
2018-12-01T14:50:31.299Z,40
2018-12-01T15:00:34.735Z,40
2018-12-01T15:10:38.138Z,39
2018-12-01T15:20:41.584Z,40
2018-12-01T15:30:45.037Z,40
2018-12-01T15:40:48.473Z,43
2018-12-01T15:50:51.924Z,43
2018-12-01T16:00:55.376Z,44
2018-12-01T16:10:58.807Z,44
2018-12-01T16:21:02.232Z,45
2018-12-01T16:31:05.660Z,47
2018-12-01T16:41:09.084Z,49
2018-12-01T16:51:13.512Z,48
2018-12-01T17:01:16.927Z,48
2018-12-01T17:11:20.360Z,49
2018-12-01T17:21:23.784Z,48
2018-12-01T17:31:27.242Z,46
2018-12-01T17:41:30.669Z,45
2018-12-01T17:51:34.226Z,46
2018-12-01T18:01:37.777Z,46
2018-12-01T18:11:41.201Z,45
2018-12-01T18:21:44.630Z,45
2018-12-01T18:31:49.080Z,46
2018-12-01T18:41:52.494Z,44
2018-12-01T18:51:55.929Z,42
2018-12-01T19:01:59.358Z,44
2018-12-01T19:12:02.807Z,45
2018-12-01T19:22:06.240Z,44
2018-12-01T19:32:09.682Z,44
2018-12-01T19:42:13.109Z,43
2018-12-01T19:52:16.564Z,45
2018-12-01T20:02:19.982Z,46
2018-12-01T20:12:23.390Z,45
2018-12-01T20:22:26.793Z,45
2018-12-01T20:32:30.206Z,44
2018-12-01T20:42:33.636Z,41
2018-12-01T20:52:37.060Z,43
2018-12-01T21:02:40.482Z,44
2018-12-01T21:12:43.931Z,44
2018-12-01T21:22:47.355Z,44
2018-12-01T21:32:50.783Z,44
2018-12-01T21:42:54.211Z,42
2018-12-01T21:52:57.667Z,45
2018-12-01T22:03:01.114Z,53
2018-12-01T22:13:04.542Z,44
2018-12-01T22:23:07.941Z,43
2018-12-01T22:33:11.371Z,43
2018-12-01T22:43:14.813Z,41
2018-12-01T22:53:18.251Z,41
2018-12-01T23:03:21.680Z,42
2018-12-01T23:13:25.134Z,43
2018-12-01T23:23:28.678Z,42
2018-12-01T23:33:32.104Z,41
2018-12-01T23:43:35.529Z,40
2018-12-01T23:53:39.022Z,40
